Time;durP1;ratioP1;P1;durP2;ratioP2;P2;SDS_P1;SDS_P2;PMS_P1;PMS_P2;Temp;Humidity;BMP_temperature;BMP_pressure;BME280_temperature;BME280_humidity;BME280_pressure;Samples;Min_cycle;Max_cycle;Signal;HPM_P1;HPM_P2
2021/06/06 00:00:27;;;;;;;39.13;30.43;;;15.50;99.90;;;;;;5097801;28;20568;-65
2021/06/06 00:02:54;;;;;;;36.63;30.47;;;15.50;99.90;;;;;;5093024;28;20184;-65
2021/06/06 00:05:25;;;;;;;32.10;28.60;;;15.40;99.90;;;;;;5106032;28;20177;-65
2021/06/06 00:07:50;;;;;;;33.57;29.73;;;15.40;99.90;;;;;;5113039;28;20177;-65
2021/06/06 00:10:16;;;;;;;32.23;27.93;;;15.40;99.90;;;;;;5098329;28;20211;-65
2021/06/06 00:12:42;;;;;;;30.33;27.03;;;15.40;99.90;;;;;;5091945;28;20177;-65
2021/06/06 00:15:12;;;;;;;34.67;29.03;;;15.40;99.90;;;;;;5103041;28;20633;-65
2021/06/06 00:17:38;;;;;;;34.27;29.03;;;15.40;99.90;;;;;;5112796;28;20173;-65
2021/06/06 00:20:06;;;;;;;32.20;28.83;;;15.40;99.90;;;;;;5102896;28;20254;-65
2021/06/06 00:22:32;;;;;;;35.30;29.10;;;15.30;99.90;;;;;;5092493;28;20186;-65
2021/06/06 00:24:57;;;;;;;38.00;31.27;;;15.40;99.90;;;;;;5100357;28;20177;-65
2021/06/06 00:27:23;;;;;;;34.07;29.30;;;15.40;99.90;;;;;;5111925;28;20173;-65
2021/06/06 00:29:50;;;;;;;39.80;31.63;;;15.30;99.90;;;;;;5105565;28;21104;-65
2021/06/06 00:32:16;;;;;;;37.73;32.07;;;15.40;99.90;;;;;;5092220;28;20173;-65
2021/06/06 00:34:42;;;;;;;39.40;32.60;;;15.30;99.90;;;;;;5096794;28;20177;-65
2021/06/06 00:37:09;;;;;;;42.20;33.93;;;15.30;99.90;;;;;;5112464;28;20169;-65
2021/06/06 00:39:35;;;;;;;40.03;33.43;;;15.30;99.90;;;;;;5108872;28;20314;-65
2021/06/06 00:42:01;;;;;;;38.13;30.77;;;15.30;99.90;;;;;;5092012;28;20166;-65
2021/06/06 00:44:27;;;;;;;39.23;30.57;;;15.30;99.90;;;;;;5093312;28;20665;-65
2021/06/06 00:46:53;;;;;;;38.47;30.20;;;15.20;99.90;;;;;;5112559;28;20194;-65
2021/06/06 00:49:19;;;;;;;36.87;29.40;;;15.10;99.90;;;;;;5111932;28;20621;-65
2021/06/06 00:51:53;;;;;;;38.77;29.33;;;15.20;99.90;;;;;;5091742;28;20262;-65
2021/06/06 00:54:25;;;;;;;29.73;24.53;;;15.10;99.90;;;;;;5092018;28;20525;-65
2021/06/06 00:56:57;;;;;;;35.20;28.53;;;15.10;99.90;;;;;;5092040;28;20426;-65
2021/06/06 00:59:25;;;;;;;35.00;27.60;;;15.10;99.90;;;;;;5106736;28;20307;-65
2021/06/06 01:01:51;;;;;;;32.30;26.47;;;15.10;99.90;;;;;;5112023;28;20175;-65
2021/06/06 01:04:17;;;;;;;33.13;28.60;;;15.10;99.90;;;;;;5098237;28;20185;-65
2021/06/06 01:06:48;;;;;;;30.97;27.70;;;15.10;99.90;;;;;;5091832;28;20169;-65
2021/06/06 01:09:17;;;;;;;30.83;27.30;;;15.30;99.90;;;;;;5104424;28;20306;-65
2021/06/06 01:12:14;;;;;;;32.93;27.43;;;15.30;99.90;;;;;;5111588;28;20246;-65
2021/06/06 01:15:15;;;;;;;30.67;27.33;;;15.30;99.90;;;;;;5102729;28;20238;-65
2021/06/06 01:18:14;;;;;;;32.87;28.70;;;15.30;99.90;;;;;;5112039;28;20177;-65
2021/06/06 01:21:01;;;;;;;31.13;25.90;;;15.20;99.90;;;;;;5091059;28;20569;-65
2021/06/06 01:24:03;;;;;;;30.93;27.57;;;15.10;99.90;;;;;;5095952;28;20536;-65
2021/06/06 01:26:32;;;;;;;33.90;29.13;;;15.10;99.90;;;;;;5111943;28;20175;-65
2021/06/06 01:29:08;;;;;;;31.27;26.20;;;15.10;99.90;;;;;;5103260;28;20173;-65
2021/06/06 01:31:37;;;;;;;31.97;26.63;;;15.10;99.90;;;;;;5091207;28;20196;-65
2021/06/06 01:34:06;;;;;;;33.60;26.10;;;15.00;99.90;;;;;;5099934;28;20649;-65
2021/06/06 01:37:04;;;;;;;40.00;25.97;;;15.00;99.90;;;;;;5111780;28;20201;-65
2021/06/06 01:39:37;;;;;;;32.13;26.63;;;15.00;99.90;;;;;;5081766;28;20284;-65
2021/06/06 01:42:11;;;;;;;29.40;26.17;;;15.00;99.90;;;;;;5091238;28;20172;-65
2021/06/06 01:44:39;;;;;;;34.33;28.37;;;15.00;99.90;;;;;;5103265;28;20184;-65
2021/06/06 01:47:11;;;;;;;34.43;28.67;;;15.00;99.90;;;;;;5099706;28;20647;-65
2021/06/06 01:49:44;;;;;;;30.40;27.00;;;15.00;99.90;;;;;;5102477;28;20570;-65
2021/06/06 01:52:11;;;;;;;29.73;26.53;;;15.00;99.90;;;;;;5111676;28;20255;-65
2021/06/06 01:54:38;;;;;;;31.67;27.23;;;14.90;99.90;;;;;;5100708;28;20650;-65
2021/06/06 01:57:13;;;;;;;32.77;25.43;;;14.90;99.90;;;;;;5091348;28;20654;-65
2021/06/06 01:59:42;;;;;;;33.70;26.23;;;14.90;99.90;;;;;;5101566;28;20305;-65
2021/06/06 02:02:11;;;;;;;32.63;27.10;;;15.00;99.90;;;;;;5111414;28;20255;-65
2021/06/06 02:04:37;;;;;;;31.27;26.80;;;14.90;99.90;;;;;;5101686;28;20213;-65
2021/06/06 02:07:18;;;;;;;34.63;29.03;;;14.90;99.90;;;;;;5091223;28;20189;-65
2021/06/06 02:09:50;;;;;;;32.40;27.63;;;14.90;99.90;;;;;;5101473;28;20572;-69
2021/06/06 02:12:16;;;;;;;32.33;27.10;;;14.90;99.90;;;;;;5112877;28;20165;-67
2021/06/06 02:14:45;;;;;;;29.67;26.53;;;14.90;99.90;;;;;;5103108;28;20203;-67
2021/06/06 02:17:25;;;;;;;31.77;26.97;;;14.90;99.90;;;;;;5092132;28;20645;-69
2021/06/06 02:19:51;;;;;;;33.40;26.17;;;14.90;99.90;;;;;;5092207;28;20207;-70
2021/06/06 02:22:18;;;;;;;30.43;26.07;;;14.90;99.90;;;;;;5074111;28;20173;-68
2021/06/06 02:24:44;;;;;;;33.57;25.97;;;14.90;99.90;;;;;;5100581;28;20250;-67
2021/06/06 02:27:25;;;;;;;30.43;26.23;;;14.80;99.90;;;;;;5112642;28;20561;-67
2021/06/06 02:30:01;;;;;;;31.50;26.27;;;14.90;99.90;;;;;;5102727;28;20613;-70
2021/06/06 02:32:31;;;;;;;33.47;25.70;;;14.90;99.90;;;;;;5092876;28;20177;-70
2021/06/06 02:35:19;;;;;;;29.63;26.53;;;14.90;99.90;;;;;;5104578;28;20187;-70
2021/06/06 02:38:06;;;;;;;29.67;26.53;;;14.90;99.90;;;;;;5116389;28;20173;-71
2021/06/06 02:40:43;;;;;;;29.57;26.40;;;14.80;99.90;;;;;;5103148;28;20197;-70
2021/06/06 02:43:19;;;;;;;31.73;27.43;;;14.90;99.90;;;;;;5096253;28;20529;-69
2021/06/06 02:45:45;;;;;;;31.23;28.03;;;14.90;99.90;;;;;;5110211;28;20195;-68
2021/06/06 02:48:24;;;;;;;30.67;27.10;;;14.90;99.90;;;;;;5116181;28;20172;-68
2021/06/06 02:50:50;;;;;;;33.67;27.63;;;14.90;99.90;;;;;;5113917;28;20208;-69
2021/06/06 02:53:32;;;;;;;30.50;26.90;;;14.80;99.90;;;;;;5115995;28;20208;-68
2021/06/06 02:56:09;;;;;;;33.60;28.70;;;14.90;99.90;;;;;;5100234;28;20264;-69
2021/06/06 02:58:40;;;;;;;32.93;28.73;;;14.90;99.90;;;;;;5106278;28;20207;-68
2021/06/06 03:01:21;;;;;;;33.93;28.93;;;14.90;99.90;;;;;;5115949;28;20292;-72
2021/06/06 03:03:48;;;;;;;32.80;28.93;;;14.90;99.90;;;;;;5104039;28;20196;-69
2021/06/06 03:06:34;;;;;;;32.17;26.90;;;14.90;99.90;;;;;;5095144;28;20177;-69
2021/06/06 03:09:00;;;;;;;31.33;27.93;;;14.90;99.90;;;;;;5108366;28;20725;-69
2021/06/06 03:11:28;;;;;;;35.20;27.50;;;14.90;99.90;;;;;;5115376;28;20264;-70
2021/06/06 03:13:58;;;;;;;32.73;27.93;;;14.90;99.90;;;;;;5104366;28;20239;-69
2021/06/06 03:16:26;;;;;;;32.70;27.63;;;14.90;99.90;;;;;;5096322;28;20173;-71
2021/06/06 03:18:54;;;;;;;31.07;27.27;;;14.90;99.90;;;;;;5095083;28;20173;-70
2021/06/06 03:21:30;;;;;;;32.47;27.57;;;14.80;99.90;;;;;;5095577;28;20188;-69
2021/06/06 03:24:02;;;;;;;32.27;25.13;;;14.90;99.90;;;;;;5106440;28;20184;-70
2021/06/06 03:26:28;;;;;;;31.53;25.60;;;14.80;99.90;;;;;;5116198;28;20177;-67
2021/06/06 03:28:55;;;;;;;31.23;25.63;;;14.80;99.90;;;;;;5105575;28;20189;-71
2021/06/06 03:31:47;;;;;;;26.93;23.17;;;14.70;99.90;;;;;;5095214;28;20697;-70
2021/06/06 03:34:13;;;;;;;31.70;27.50;;;14.70;99.90;;;;;;5107577;28;20229;-70
2021/06/06 03:36:42;;;;;;;31.43;27.07;;;14.60;99.90;;;;;;5115666;28;20169;-70
2021/06/06 03:39:11;;;;;;;29.10;26.17;;;14.70;99.90;;;;;;5104347;28;20206;-71
2021/06/06 03:41:37;;;;;;;29.47;25.57;;;14.70;99.90;;;;;;5094139;28;20556;-71
2021/06/06 03:44:05;;;;;;;33.50;27.43;;;14.70;99.90;;;;;;5104481;28;20180;-70
2021/06/06 03:46:31;;;;;;;31.57;27.33;;;14.70;99.90;;;;;;5115388;28;20188;-69
2021/06/06 03:48:57;;;;;;;31.20;27.90;;;14.60;99.90;;;;;;5107249;28;20540;-70
2021/06/06 03:51:26;;;;;;;29.83;26.10;;;14.70;99.90;;;;;;5076082;28;20201;-70
2021/06/06 03:53:51;;;;;;;32.10;25.37;;;14.60;99.90;;;;;;5101509;28;20183;-70
2021/06/06 03:56:18;;;;;;;37.83;28.60;;;14.70;99.90;;;;;;5115276;28;20252;-69
2021/06/06 03:58:44;;;;;;;33.23;29.53;;;14.70;99.90;;;;;;5109737;28;20615;-69
2021/06/06 04:01:11;;;;;;;36.33;30.90;;;14.70;99.90;;;;;;5076186;28;20268;-67
2021/06/06 04:03:37;;;;;;;33.40;29.23;;;14.70;99.90;;;;;;5098567;28;20180;-69
2021/06/06 04:06:03;;;;;;;36.70;29.87;;;14.60;99.90;;;;;;5095609;28;20176;-66
2021/06/06 04:08:29;;;;;;;33.97;30.27;;;14.70;99.90;;;;;;5092629;28;20177;-66
2021/06/06 04:10:55;;;;;;;39.40;32.03;;;14.70;99.90;;;;;;5092609;28;20761;-66
2021/06/06 04:13:21;;;;;;;36.00;29.83;;;14.60;99.90;;;;;;5092868;28;20191;-66
2021/06/06 04:15:47;;;;;;;41.33;33.53;;;14.50;99.90;;;;;;5112969;28;20169;-66
2021/06/06 04:18:17;;;;;;;43.60;34.10;;;14.40;99.90;;;;;;5111628;28;20176;-66
2021/06/06 04:20:45;;;;;;;40.80;34.60;;;14.50;99.90;;;;;;5092567;28;20214;-66
2021/06/06 04:23:11;;;;;;;47.23;36.23;;;14.60;99.90;;;;;;5092503;28;20185;-66
2021/06/06 04:25:38;;;;;;;41.97;35.20;;;14.60;99.90;;;;;;5110741;28;20547;-66
2021/06/06 04:28:04;;;;;;;46.97;36.80;;;14.60;99.90;;;;;;5112641;28;20779;-66
2021/06/06 04:30:30;;;;;;;48.83;35.67;;;14.60;99.90;;;;;;5110060;22;20316;-65
2021/06/06 04:32:55;;;;;;;46.30;36.07;;;14.60;99.90;;;;;;5092399;28;20173;-65
2021/06/06 04:35:21;;;;;;;42.73;35.67;;;14.70;99.90;;;;;;5092095;28;20288;-65
2021/06/06 04:37:47;;;;;;;44.70;35.33;;;14.70;99.90;;;;;;5092179;28;20162;-65
2021/06/06 04:40:15;;;;;;;39.80;33.43;;;14.70;99.90;;;;;;5091481;28;20201;-65
2021/06/06 04:42:41;;;;;;;44.50;35.77;;;14.60;99.90;;;;;;5092242;28;20177;-64
2021/06/06 04:45:10;;;;;;;45.33;35.97;;;14.60;99.90;;;;;;5091966;28;20173;-64
2021/06/06 04:47:35;;;;;;;41.63;34.37;;;14.70;99.90;;;;;;5092156;28;20178;-64
2021/06/06 04:50:02;;;;;;;44.43;35.57;;;14.70;99.90;;;;;;5091280;28;20209;-64
2021/06/06 04:52:35;;;;;;;42.60;34.20;;;14.70;99.90;;;;;;5091739;28;20181;-64
2021/06/06 04:55:03;;;;;;;44.17;33.40;;;14.60;99.90;;;;;;5091381;28;20647;-64
2021/06/06 04:57:28;;;;;;;44.93;36.77;;;14.70;99.90;;;;;;5091696;28;20222;-65
2021/06/06 04:59:54;;;;;;;47.10;35.70;;;14.70;99.90;;;;;;5091503;28;20197;-65
2021/06/06 05:02:19;;;;;;;41.53;33.73;;;14.70;99.90;;;;;;5091500;28;20173;-64
2021/06/06 05:04:46;;;;;;;48.13;35.77;;;14.70;99.90;;;;;;5091872;28;20181;-64
2021/06/06 05:07:12;;;;;;;44.07;36.40;;;14.50;99.90;;;;;;5091444;28;20248;-65
2021/06/06 05:09:37;;;;;;;50.27;36.97;;;14.50;99.90;;;;;;5091639;28;20224;-64
2021/06/06 05:12:03;;;;;;;49.47;38.47;;;14.40;99.90;;;;;;5091345;28;20177;-64
2021/06/06 05:14:29;;;;;;;49.73;39.37;;;14.40;99.90;;;;;;5091520;28;20201;-64
2021/06/06 05:16:55;;;;;;;54.47;39.33;;;14.40;99.90;;;;;;5091730;28;20204;-65
2021/06/06 05:19:20;;;;;;;54.43;40.33;;;14.50;99.90;;;;;;5090419;28;20217;-65
2021/06/06 05:21:46;;;;;;;56.63;39.13;;;14.40;99.90;;;;;;5091334;28;20705;-64
2021/06/06 05:24:12;;;;;;;50.87;37.47;;;14.40;99.90;;;;;;5091329;28;20181;-65
2021/06/06 05:26:38;;;;;;;61.87;42.00;;;14.30;99.90;;;;;;5091443;28;20174;-64
2021/06/06 05:29:05;;;;;;;56.10;40.00;;;14.30;99.90;;;;;;5091509;28;20174;-64
2021/06/06 05:31:31;;;;;;;54.83;41.47;;;14.20;99.90;;;;;;5090955;28;20288;-65
2021/06/06 05:33:57;;;;;;;50.57;39.77;;;14.20;99.90;;;;;;5091422;28;20201;-65
2021/06/06 05:36:23;;;;;;;57.97;42.67;;;14.20;99.90;;;;;;5091134;28;20215;-65
2021/06/06 05:38:48;;;;;;;58.00;41.53;;;14.20;99.90;;;;;;5091581;28;20261;-65
2021/06/06 05:41:14;;;;;;;55.77;41.70;;;14.30;99.90;;;;;;5090975;28;20221;-65
2021/06/06 05:43:39;;;;;;;59.30;41.03;;;14.30;99.90;;;;;;5091327;28;20630;-64
2021/06/06 05:46:08;;;;;;;60.43;44.77;;;14.40;99.90;;;;;;5091306;28;20185;-66
2021/06/06 05:48:33;;;;;;;57.70;41.97;;;14.50;99.90;;;;;;5091184;28;20256;-66
2021/06/06 05:51:03;;;;;;;64.10;43.17;;;14.60;99.90;;;;;;5090984;28;20288;-68
2021/06/06 05:53:29;;;;;;;65.73;43.30;;;14.60;99.90;;;;;;5091161;28;20532;-67
2021/06/06 05:55:56;;;;;;;65.67;45.03;;;14.60;99.90;;;;;;5091311;28;20178;-67
2021/06/06 05:58:22;;;;;;;69.27;46.53;;;14.50;99.90;;;;;;5091001;28;20208;-67
2021/06/06 06:00:48;;;;;;;69.80;47.07;;;14.50;99.90;;;;;;5090947;28;20233;-66
2021/06/06 06:03:15;;;;;;;72.67;50.83;;;14.50;99.90;;;;;;5081889;28;20189;-67
2021/06/06 06:05:41;;;;;;;72.10;50.03;;;14.50;99.90;;;;;;5071122;28;20541;-68
2021/06/06 06:08:25;;;;;;;78.77;51.87;;;14.60;99.90;;;;;;5083347;28;20180;-66
2021/06/06 06:10:52;;;;;;;79.37;53.07;;;14.50;99.90;;;;;;5094688;28;20204;-67
2021/06/06 06:13:20;;;;;;;80.77;54.37;;;14.70;99.90;;;;;;5094546;28;20177;-66
2021/06/06 06:15:45;;;;;;;80.60;53.83;;;14.60;99.90;;;;;;5095050;28;20209;-66
2021/06/06 06:18:12;;;;;;;76.33;52.77;;;14.70;99.90;;;;;;5094267;28;20239;-67
2021/06/06 06:20:38;;;;;;;82.40;53.60;;;14.60;99.90;;;;;;5094609;28;20674;-67
2021/06/06 06:23:04;;;;;;;82.47;54.43;;;14.80;99.90;;;;;;5094465;28;20198;-65
2021/06/06 06:25:30;;;;;;;80.33;52.77;;;14.80;99.90;;;;;;5094734;28;20209;-65
2021/06/06 06:27:56;;;;;;;74.17;49.97;;;14.80;99.90;;;;;;5093502;28;20647;-65
2021/06/06 06:30:28;;;;;;;83.50;55.87;;;14.70;99.90;;;;;;5094001;28;20213;-65
2021/06/06 06:32:53;;;;;;;80.33;53.00;;;14.70;99.90;;;;;;5094453;28;20608;-65
2021/06/06 06:35:19;;;;;;;80.90;54.27;;;14.70;99.90;;;;;;5094412;28;20244;-66
2021/06/06 06:37:45;;;;;;;75.90;53.37;;;14.80;99.90;;;;;;5094388;28;20630;-66
2021/06/06 06:40:13;;;;;;;87.60;56.30;;;14.80;99.90;;;;;;5093911;28;20199;-66
2021/06/06 06:42:39;;;;;;;98.03;58.63;;;14.90;99.90;;;;;;5094130;28;20219;-65
2021/06/06 06:45:07;;;;;;;104.97;60.27;;;15.00;99.90;;;;;;5094255;28;20177;-65
2021/06/06 06:47:33;;;;;;;110.00;62.83;;;15.00;99.90;;;;;;5094060;28;20659;-67
2021/06/06 06:49:59;;;;;;;104.47;61.53;;;15.00;99.90;;;;;;5093966;28;20274;-67
2021/06/06 06:52:24;;;;;;;94.17;58.27;;;15.00;99.90;;;;;;5094051;28;20530;-67
2021/06/06 06:54:50;;;;;;;92.53;56.30;;;15.10;99.90;;;;;;5093983;28;20170;-66
2021/06/06 06:57:16;;;;;;;94.23;57.10;;;15.20;99.90;;;;;;5093628;28;20239;-67
2021/06/06 06:59:42;;;;;;;101.47;62.37;;;15.20;99.90;;;;;;5093828;28;20545;-66
2021/06/06 07:02:08;;;;;;;91.73;57.33;;;15.20;99.90;;;;;;5093341;28;20181;-67
2021/06/06 07:04:34;;;;;;;85.43;51.00;;;15.20;99.90;;;;;;5093973;28;20201;-67
2021/06/06 07:07:00;;;;;;;80.20;53.57;;;15.20;99.90;;;;;;5093774;28;20169;-67
2021/06/06 07:09:26;;;;;;;72.50;51.50;;;15.20;99.90;;;;;;5093680;28;20189;-66
2021/06/06 07:11:54;;;;;;;81.50;53.27;;;15.40;99.90;;;;;;5093124;28;20197;-66
2021/06/06 07:14:19;;;;;;;80.77;54.17;;;15.50;99.90;;;;;;5075557;28;20257;-66
2021/06/06 07:16:46;;;;;;;78.10;52.17;;;15.50;99.90;;;;;;5086567;28;20304;-67
2021/06/06 07:19:12;;;;;;;71.20;50.90;;;15.60;99.90;;;;;;5092977;28;20166;-67
2021/06/06 07:21:38;;;;;;;68.13;48.93;;;15.70;99.90;;;;;;5092143;28;20177;-66
2021/06/06 07:24:05;;;;;;;67.83;47.87;;;15.70;99.90;;;;;;5093203;28;20543;-68
2021/06/06 07:26:37;;;;;;;65.03;47.57;;;15.80;99.90;;;;;;5076633;28;20178;-66
2021/06/06 07:29:09;;;;;;;72.13;49.80;;;15.90;99.90;;;;;;5092545;28;20193;-67
2021/06/06 07:31:36;;;;;;;69.00;48.13;;;15.90;99.90;;;;;;5093245;28;20193;-67
2021/06/06 07:34:03;;;;;;;70.47;49.43;;;15.90;99.90;;;;;;5093062;28;20180;-67
2021/06/06 07:36:29;;;;;;;70.63;49.70;;;15.90;99.90;;;;;;5093278;28;20170;-66
2021/06/06 07:38:54;;;;;;;80.00;51.10;;;16.10;99.90;;;;;;5093087;28;20567;-66
2021/06/06 07:41:21;;;;;;;76.73;50.83;;;16.10;99.90;;;;;;5092782;28;20201;-67
2021/06/06 07:43:47;;;;;;;72.93;52.20;;;16.20;99.90;;;;;;5093142;28;20252;-67
2021/06/06 07:46:14;;;;;;;80.07;55.57;;;16.00;99.90;;;;;;5093017;28;20661;-66
2021/06/06 07:48:44;;;;;;;73.47;51.07;;;15.90;99.90;;;;;;5074933;28;20529;-67
2021/06/06 07:51:10;;;;;;;79.20;53.17;;;15.70;99.90;;;;;;5082111;28;20202;-66
2021/06/06 07:53:36;;;;;;;76.00;51.60;;;15.50;99.90;;;;;;5085078;28;20176;-67
2021/06/06 07:56:02;;;;;;;72.20;50.83;;;15.50;99.90;;;;;;5093307;28;20165;-66
2021/06/06 07:58:32;;;;;;;71.00;49.97;;;15.50;99.90;;;;;;5092894;28;20230;-67
2021/06/06 08:00:58;;;;;;;69.93;48.10;;;15.50;99.90;;;;;;5092507;28;20212;-65
2021/06/06 08:03:27;;;;;;;69.20;48.30;;;15.60;99.90;;;;;;5092480;28;20181;-65
2021/06/06 08:05:52;;;;;;;71.63;48.47;;;15.80;99.90;;;;;;5092656;28;20185;-65
2021/06/06 08:08:18;;;;;;;68.03;48.73;;;15.90;99.90;;;;;;5092213;28;20185;-67
2021/06/06 08:10:49;;;;;;;64.83;47.83;;;16.00;99.90;;;;;;5092560;28;20603;-67
2021/06/06 08:13:15;;;;;;;60.10;45.97;;;16.20;99.90;;;;;;5092316;28;20652;-67
2021/06/06 08:15:41;;;;;;;63.83;46.27;;;16.40;99.90;;;;;;5092652;28;20173;-67
2021/06/06 08:18:10;;;;;;;57.30;43.80;;;16.50;99.90;;;;;;5092076;28;20528;-67
2021/06/06 08:20:42;;;;;;;60.90;46.13;;;16.70;99.90;;;;;;5092073;28;20197;-67
2021/06/06 08:23:09;;;;;;;60.13;45.37;;;16.80;99.90;;;;;;5092187;28;20593;-63
2021/06/06 08:25:39;;;;;;;59.37;43.20;;;16.70;99.90;;;;;;5092391;28;20197;-64
2021/06/06 08:28:06;;;;;;;61.27;44.43;;;16.60;99.90;;;;;;5091917;28;20169;-63
2021/06/06 08:30:36;;;;;;;58.03;44.40;;;16.30;99.90;;;;;;5090903;28;20243;-66
2021/06/06 08:33:03;;;;;;;66.43;46.73;;;16.00;99.90;;;;;;5092053;28;20184;-64
2021/06/06 08:35:29;;;;;;;76.00;48.77;;;15.90;99.90;;;;;;5092135;28;20176;-66
2021/06/06 08:37:54;;;;;;;62.90;42.47;;;15.80;99.90;;;;;;5092068;28;20658;-67
2021/06/06 08:40:38;;;;;;;64.80;45.93;;;15.70;99.90;;;;;;5091319;28;20208;-66
2021/06/06 08:43:06;;;;;;;61.00;42.03;;;15.70;99.90;;;;;;5091853;28;20181;-65
2021/06/06 08:46:01;;;;;;;57.60;43.67;;;15.60;99.90;;;;;;5091922;28;20169;-67
2021/06/06 08:48:29;;;;;;;62.07;43.67;;;15.60;99.90;;;;;;5070304;28;20650;-67
2021/06/06 08:51:28;;;;;;;61.63;44.60;;;15.70;99.90;;;;;;5091505;28;20242;-67
2021/06/06 08:54:01;;;;;;;56.63;43.57;;;15.80;99.90;;;;;;5091665;28;20173;-66
2021/06/06 08:56:35;;;;;;;53.93;40.43;;;15.90;99.90;;;;;;5091709;28;20173;-66
2021/06/06 08:59:04;;;;;;;56.93;41.60;;;16.00;99.90;;;;;;5091802;28;20168;-66
2021/06/06 09:01:43;;;;;;;55.57;40.47;;;16.20;99.90;;;;;;5089340;28;20280;-67
2021/06/06 09:04:22;;;;;;;57.47;43.53;;;16.20;99.90;;;;;;5088738;28;20243;-66
2021/06/06 09:06:57;;;;;;;51.37;39.67;;;16.20;99.90;;;;;;5091454;28;20204;-67
2021/06/06 09:09:27;;;;;;;48.70;39.40;;;16.10;99.90;;;;;;5091514;28;20192;-66
2021/06/06 09:11:59;;;;;;;51.30;41.90;;;16.00;99.90;;;;;;5091084;28;20201;-67
2021/06/06 09:14:24;;;;;;;47.27;38.30;;;16.10;99.90;;;;;;5090381;28;20569;-66
2021/06/06 09:17:00;;;;;;;49.20;39.77;;;16.30;99.90;;;;;;5091346;28;20235;-67
2021/06/06 09:19:37;;;;;;;48.60;37.37;;;16.40;99.90;;;;;;5091371;28;20268;-68
2021/06/06 09:22:03;;;;;;;48.10;40.07;;;16.50;99.90;;;;;;5090313;28;20729;-66
2021/06/06 09:24:35;;;;;;;47.60;38.37;;;16.50;99.90;;;;;;5091734;28;20173;-65
2021/06/06 09:27:22;;;;;;;46.97;38.40;;;16.60;99.90;;;;;;5080624;28;20189;-64
2021/06/06 09:30:00;;;;;;;41.13;36.67;;;16.80;99.90;;;;;;5090976;28;20682;-63
2021/06/06 09:32:26;;;;;;;43.63;34.20;;;17.30;99.90;;;;;;5090927;28;20537;-64
2021/06/06 09:34:56;;;;;;;42.07;35.63;;;17.50;99.90;;;;;;5091443;28;20275;-64
2021/06/06 09:37:27;;;;;;;35.67;31.97;;;17.80;99.90;;;;;;5091037;28;20177;-65
2021/06/06 09:40:10;;;;;;;36.30;32.43;;;18.30;99.90;;;;;;5091155;28;20189;-64
2021/06/06 09:42:47;;;;;;;34.03;29.83;;;18.80;99.90;;;;;;5075820;28;20190;-65
2021/06/06 09:45:24;;;;;;;33.33;29.73;;;19.30;99.90;;;;;;5095826;28;20173;-65
2021/06/06 09:48:17;;;;;;;34.90;31.33;;;19.50;99.90;;;;;;5095642;28;20161;-64
2021/06/06 09:50:46;;;;;;;36.03;32.23;;;19.70;99.90;;;;;;5095117;28;20205;-65
2021/06/06 09:53:25;;;;;;;34.63;30.93;;;19.70;99.90;;;;;;5095051;28;20177;-65
2021/06/06 09:56:03;;;;;;;34.37;30.70;;;19.50;99.90;;;;;;5095478;28;20539;-65
2021/06/06 09:58:33;;;;;;;33.00;29.47;;;19.30;99.90;;;;;;5095176;28;20222;-64
2021/06/06 10:01:09;;;;;;;34.07;28.90;;;19.40;99.90;;;;;;5094796;28;20194;-63
2021/06/06 10:03:41;;;;;;;31.27;28.13;;;19.70;99.90;;;;;;5094260;28;20177;-65
2021/06/06 10:06:23;;;;;;;32.93;29.53;;;20.00;99.90;;;;;;5094798;28;20588;-64
2021/06/06 10:09:06;;;;;;;32.33;29.13;;;20.20;99.90;;;;;;5094877;28;20181;-64
2021/06/06 10:11:55;;;;;;;32.37;29.07;;;20.00;99.90;;;;;;5094528;28;20209;-66
2021/06/06 10:14:29;;;;;;;32.53;29.07;;;19.70;99.90;;;;;;5076307;28;20803;-64
2021/06/06 10:17:00;;;;;;;33.20;29.90;;;19.50;99.90;;;;;;5094908;28;20160;-65
2021/06/06 10:19:38;;;;;;;32.43;29.07;;;19.40;99.90;;;;;;5094438;28;20295;-66
2021/06/06 10:22:11;;;;;;;31.17;28.07;;;19.50;99.90;;;;;;5094366;28;20265;-63
2021/06/06 10:25:07;;;;;;;32.13;27.10;;;19.70;99.90;;;;;;5094487;28;20267;-64
2021/06/06 10:27:41;;;;;;;30.67;27.57;;;20.00;99.90;;;;;;5094407;28;20197;-64
2021/06/06 10:32:44;;;;;;;27.37;24.70;;;20.70;99.90;;;;;;5072343;28;20210;-66
2021/06/06 10:35:17;;;;;;;27.30;24.60;;;21.00;99.90;;;;;;5054605;28;20184;-65
2021/06/06 10:37:49;;;;;;;26.55;23.88;;;21.10;99.90;;;;;;5053412;28;20579;-65
2021/06/06 10:40:32;;;;;;;25.00;22.50;;;21.30;99.90;;;;;;5079566;28;20193;-65
2021/06/06 10:43:32;;;;;;;26.08;23.38;;;21.60;99.90;;;;;;5092206;28;20165;-65
2021/06/06 10:46:10;;;;;;;24.60;22.03;;;21.60;99.90;;;;;;5074115;28;20254;-65
2021/06/06 10:48:44;;;;;;;25.55;22.85;;;21.40;99.90;;;;;;5080472;28;20238;-65
2021/06/06 10:51:39;;;;;;;25.37;22.77;;;21.30;99.90;;;;;;5093585;28;20697;-65
2021/06/06 10:54:33;;;;;;;25.67;22.63;;;20.70;99.90;;;;;;5082889;28;20167;-65
2021/06/06 10:57:04;;;;;;;27.63;24.93;;;20.40;99.90;;;;;;5082288;28;20174;-65
2021/06/06 10:59:46;;;;;;;27.93;24.93;;;20.30;99.90;;;;;;5093972;28;20181;-65
2021/06/06 11:02:36;;;;;;;27.70;24.80;;;20.10;99.90;;;;;;5083838;28;20170;-65
2021/06/06 11:05:25;;;;;;;26.93;24.27;;;20.00;99.90;;;;;;5073915;28;20163;-65
2021/06/06 11:07:51;;;;;;;27.80;25.10;;;20.20;99.90;;;;;;5088062;28;20654;-65
2021/06/06 11:10:20;;;;;;;25.83;23.17;;;20.20;99.90;;;;;;5093604;28;20201;-65
2021/06/06 11:12:49;;;;;;;25.40;22.87;;;20.30;99.90;;;;;;5080274;28;20181;-65
2021/06/06 11:15:39;;;;;;;27.23;24.27;;;20.40;99.90;;;;;;5073395;28;20185;-65
2021/06/06 11:18:19;;;;;;;29.40;26.37;;;20.70;99.90;;;;;;5074785;28;20178;-65
2021/06/06 11:20:53;;;;;;;28.38;25.45;;;20.40;99.90;;;;;;5073354;28;20194;-65
2021/06/06 11:23:33;;;;;;;28.47;25.47;;;20.20;99.90;;;;;;5090164;28;20173;-65
2021/06/06 11:26:00;;;;;;;27.57;24.03;;;20.30;99.90;;;;;;5093738;28;20184;-66
2021/06/06 11:28:38;;;;;;;27.43;23.90;;;20.50;99.90;;;;;;5075863;28;20178;-67
2021/06/06 11:31:19;;;;;;;26.93;23.83;;;20.70;99.90;;;;;;5072810;28;20202;-64
2021/06/06 11:33:59;;;;;;;25.53;23.03;;;20.60;99.90;;;;;;5092616;28;20196;-67
2021/06/06 11:36:44;;;;;;;26.23;23.53;;;20.60;99.90;;;;;;5093368;28;20680;-64
2021/06/06 11:39:15;;;;;;;26.27;22.40;;;20.70;99.90;;;;;;5053071;28;20655;-66
2021/06/06 11:41:43;;;;;;;27.43;24.73;;;20.60;99.90;;;;;;5055128;28;20186;-66
2021/06/06 11:44:18;;;;;;;25.80;23.13;;;20.60;99.90;;;;;;5093152;28;20183;-66
2021/06/06 11:46:52;;;;;;;25.73;22.92;;;21.00;99.90;;;;;;5092226;28;20180;-66
2021/06/06 11:49:28;;;;;;;25.43;21.70;;;21.10;99.90;;;;;;5072860;28;20253;-66
2021/06/06 11:51:57;;;;;;;27.57;24.70;;;21.30;99.90;;;;;;5055764;28;20197;-66
2021/06/06 11:54:30;;;;;;;27.55;24.75;;;21.30;99.90;;;;;;5072565;28;20181;-66
2021/06/06 11:57:01;;;;;;;27.63;24.60;;;21.40;99.90;;;;;;5076902;28;20696;-66
2021/06/06 11:59:37;;;;;;;26.85;24.00;;;21.50;99.90;;;;;;5092900;28;20173;-66
2021/06/06 12:02:28;;;;;;;25.27;22.67;;;21.50;99.90;;;;;;5087751;28;20638;-66
2021/06/06 12:04:56;;;;;;;27.87;23.83;;;21.60;99.90;;;;;;5072673;28;20190;-66
2021/06/06 12:07:29;;;;;;;25.13;22.53;;;21.60;99.90;;;;;;5076058;28;20186;-66
2021/06/06 12:09:56;;;;;;;26.20;23.43;;;21.60;99.90;;;;;;5072241;28;20190;-66
2021/06/06 12:12:36;;;;;;;25.85;23.17;;;21.60;99.90;;;;;;5081200;28;20268;-66
2021/06/06 12:15:25;;;;;;;27.35;23.95;;;21.60;99.90;;;;;;5092816;28;20168;-66
2021/06/06 12:18:22;;;;;;;26.30;23.67;;;21.40;99.90;;;;;;5091070;28;20541;-66
2021/06/06 12:20:58;;;;;;;26.50;23.63;;;21.20;99.90;;;;;;5079732;28;20201;-66
2021/06/06 12:23:38;;;;;;;25.60;22.90;;;21.20;99.90;;;;;;5075383;28;20186;-66
2021/06/06 12:26:15;;;;;;;23.42;21.10;;;21.20;99.90;;;;;;5072224;28;20227;-66
2021/06/06 12:28:44;;;;;;;24.30;21.08;;;21.60;99.90;;;;;;5089920;28;20181;-66
2021/06/06 12:31:29;;;;;;;24.73;22.13;;;21.70;99.90;;;;;;5091827;28;20414;-66
2021/06/06 12:33:56;;;;;;;25.48;22.13;;;21.90;99.90;;;;;;5072357;28;20705;-66
2021/06/06 12:36:33;;;;;;;25.00;22.47;;;21.90;99.90;;;;;;5071668;28;20630;-66
2021/06/06 12:39:01;;;;;;;23.05;20.67;;;22.00;99.90;;;;;;5073578;28;20563;-66
2021/06/06 12:41:28;;;;;;;25.23;21.40;;;22.20;99.90;;;;;;5090991;28;20221;-66
2021/06/06 12:43:56;;;;;;;25.00;22.40;;;21.80;99.90;;;;;;5073148;28;20170;-66
2021/06/06 12:46:23;;;;;;;24.00;21.73;;;21.60;99.90;;;;;;5071724;28;20227;-66
2021/06/06 12:49:05;;;;;;;22.17;19.85;;;21.60;99.90;;;;;;5089122;28;20662;-66